sensor_id;sensor_type;location;lat;lon;timestamp;pressure;altitude;pressure_sealevel;temperature;humidity
30339;BME280;795;49.296;11.348;2023-01-25T00:02:08;97911.16;;;-0.43;100.00
30339;BME280;795;49.296;11.348;2023-01-25T00:04:35;97990.66;;;0.10;100.00
30339;BME280;795;49.296;11.348;2023-01-25T00:07:02;97938.81;;;-0.31;100.00
30339;BME280;795;49.296;11.348;2023-01-25T00:09:29;97940.97;;;-0.41;100.00
30339;BME280;795;49.296;11.348;2023-01-25T00:11:56;97887.44;;;-0.63;100.00
30339;BME280;795;49.296;11.348;2023-01-25T00:14:24;97721.59;;;-1.71;100.00
30339;BME280;795;49.296;11.348;2023-01-25T00:16:51;97976.19;;;0.00;100.00
30339;BME280;795;49.296;11.348;2023-01-25T00:19:19;97987.72;;;-0.03;100.00
30339;BME280;795;49.296;11.348;2023-01-25T00:21:47;97891.06;;;-0.65;100.00
30339;BME280;795;49.296;11.348;2023-01-25T00:24:13;97925.09;;;-0.39;100.00
30339;BME280;795;49.296;11.348;2023-01-25T00:26:42;97934.84;;;-0.21;100.00
30339;BME280;795;49.296;11.348;2023-01-25T00:29:13;97987.53;;;0.02;100.00
30339;BME280;795;49.296;11.348;2023-01-25T00:32:01;97984.47;;;0.11;100.00
30339;BME280;795;49.296;11.348;2023-01-25T00:34:49;97893.81;;;-0.48;100.00
30339;BME280;795;49.296;11.348;2023-01-25T00:37:26;97983.47;;;0.14;100.00
30339;BME280;795;49.296;11.348;2023-01-25T00:39:54;97884.47;;;-0.35;100.00
30339;BME280;795;49.296;11.348;2023-01-25T00:42:22;97977.31;;;0.33;100.00
30339;BME280;795;49.296;11.348;2023-01-25T00:44:49;97905.88;;;-0.03;100.00
30339;BME280;795;49.296;11.348;2023-01-25T00:47:16;97966.16;;;0.27;100.00
30339;BME280;795;49.296;11.348;2023-01-25T00:49:45;97861.81;;;-0.41;100.00
30339;BME280;795;49.296;11.348;2023-01-25T00:52:12;97964.00;;;0.36;100.00
30339;BME280;795;49.296;11.348;2023-01-25T00:54:40;97872.81;;;-0.11;100.00
30339;BME280;795;49.296;11.348;2023-01-25T00:57:08;97964.03;;;0.35;100.00
30339;BME280;795;49.296;11.348;2023-01-25T00:59:35;97872.13;;;-0.35;100.00
30339;BME280;795;49.296;11.348;2023-01-25T01:02:03;97716.25;;;-1.28;100.00
30339;BME280;795;49.296;11.348;2023-01-25T01:04:30;97951.16;;;0.27;100.00
30339;BME280;795;49.296;11.348;2023-01-25T01:06:57;97801.00;;;-0.56;100.00
30339;BME280;795;49.296;11.348;2023-01-25T01:09:25;97812.03;;;-0.48;100.00
30339;BME280;795;49.296;11.348;2023-01-25T01:11:53;97960.41;;;0.37;100.00
30339;BME280;795;49.296;11.348;2023-01-25T01:14:22;97749.09;;;-0.95;100.00
30339;BME280;795;49.296;11.348;2023-01-25T01:16:49;97837.59;;;-0.49;100.00
30339;BME280;795;49.296;11.348;2023-01-25T01:19:17;97631.78;;;-1.64;100.00
30339;BME280;795;49.296;11.348;2023-01-25T01:21:44;97845.28;;;-0.44;100.00
30339;BME280;795;49.296;11.348;2023-01-25T01:24:11;97602.22;;;-1.90;100.00
30339;BME280;795;49.296;11.348;2023-01-25T01:26:38;97465.81;;;-2.61;100.00
30339;BME280;795;49.296;11.348;2023-01-25T01:29:05;97889.41;;;-0.28;100.00
30339;BME280;795;49.296;11.348;2023-01-25T01:31:32;97785.84;;;-0.72;100.00
30339;BME280;795;49.296;11.348;2023-01-25T01:34:00;97942.56;;;0.04;100.00
30339;BME280;795;49.296;11.348;2023-01-25T01:36:29;97951.72;;;0.15;100.00
30339;BME280;795;49.296;11.348;2023-01-25T01:38:58;97764.22;;;-1.00;100.00
30339;BME280;795;49.296;11.348;2023-01-25T01:41:26;97665.56;;;-1.53;100.00
30339;BME280;795;49.296;11.348;2023-01-25T01:43:53;97798.44;;;-0.78;100.00
30339;BME280;795;49.296;11.348;2023-01-25T01:46:37;97627.31;;;-1.82;100.00
30339;BME280;795;49.296;11.348;2023-01-25T01:49:31;97952.00;;;0.09;100.00
30339;BME280;795;49.296;11.348;2023-01-25T01:52:08;97871.69;;;-0.44;100.00
30339;BME280;795;49.296;11.348;2023-01-25T01:55:02;97899.72;;;-0.42;100.00
30339;BME280;795;49.296;11.348;2023-01-25T01:57:53;97786.41;;;-1.25;100.00
30339;BME280;795;49.296;11.348;2023-01-25T02:00:34;97901.47;;;-0.62;100.00
30339;BME280;795;49.296;11.348;2023-01-25T02:03:02;97932.34;;;-0.44;100.00
30339;BME280;795;49.296;11.348;2023-01-25T02:05:45;97950.69;;;-0.21;100.00
30339;BME280;795;49.296;11.348;2023-01-25T02:08:14;97903.56;;;-0.50;100.00
30339;BME280;795;49.296;11.348;2023-01-25T02:10:43;97945.41;;;-0.21;100.00
30339;BME280;795;49.296;11.348;2023-01-25T02:13:11;97932.50;;;-0.27;100.00
30339;BME280;795;49.296;11.348;2023-01-25T02:15:50;97876.16;;;-0.67;100.00
30339;BME280;795;49.296;11.348;2023-01-25T02:18:19;97892.13;;;-0.49;100.00
30339;BME280;795;49.296;11.348;2023-01-25T02:20:57;97881.16;;;-0.60;100.00
30339;BME280;795;49.296;11.348;2023-01-25T02:23:46;97933.47;;;-0.30;100.00
30339;BME280;795;49.296;11.348;2023-01-25T02:26:17;97785.88;;;-1.13;100.00
30339;BME280;795;49.296;11.348;2023-01-25T02:28:58;97955.44;;;-0.09;100.00
30339;BME280;795;49.296;11.348;2023-01-25T02:31:27;97948.84;;;0.01;100.00
30339;BME280;795;49.296;11.348;2023-01-25T02:33:55;97801.19;;;-0.81;100.00
30339;BME280;795;49.296;11.348;2023-01-25T02:36:32;97951.34;;;0.04;100.00
30339;BME280;795;49.296;11.348;2023-01-25T02:39:15;97815.94;;;-0.77;100.00
30339;BME280;795;49.296;11.348;2023-01-25T02:41:46;97737.00;;;-1.20;100.00
30339;BME280;795;49.296;11.348;2023-01-25T02:44:30;97873.56;;;-0.48;100.00
30339;BME280;795;49.296;11.348;2023-01-25T02:47:00;97822.72;;;-0.92;100.00
30339;BME280;795;49.296;11.348;2023-01-25T02:49:27;97884.31;;;-0.52;100.00
30339;BME280;795;49.296;11.348;2023-01-25T02:51:55;97926.75;;;-0.37;100.00
30339;BME280;795;49.296;11.348;2023-01-25T02:54:24;97931.59;;;-0.48;100.00
30339;BME280;795;49.296;11.348;2023-01-25T02:56:52;97848.41;;;-0.97;100.00
30339;BME280;795;49.296;11.348;2023-01-25T02:59:20;97947.06;;;-0.39;100.00
30339;BME280;795;49.296;11.348;2023-01-25T03:01:48;97799.63;;;-1.27;100.00
30339;BME280;795;49.296;11.348;2023-01-25T03:04:15;97931.81;;;-0.52;100.00
30339;BME280;795;49.296;11.348;2023-01-25T03:06:43;97716.03;;;-1.85;100.00
30339;BME280;795;49.296;11.348;2023-01-25T03:09:11;97954.47;;;-0.48;100.00
30339;BME280;795;49.296;11.348;2023-01-25T03:11:38;97868.38;;;-0.90;100.00
30339;BME280;795;49.296;11.348;2023-01-25T03:14:05;97860.69;;;-0.96;100.00
30339;BME280;795;49.296;11.348;2023-01-25T03:16:32;97930.09;;;-0.53;100.00
30339;BME280;795;49.296;11.348;2023-01-25T03:18:59;97761.06;;;-1.50;100.00
30339;BME280;795;49.296;11.348;2023-01-25T03:21:26;97606.47;;;-2.30;100.00
30339;BME280;795;49.296;11.348;2023-01-25T03:23:58;97878.88;;;-0.68;100.00
30339;BME280;795;49.296;11.348;2023-01-25T03:26:28;97644.16;;;-2.08;100.00
30339;BME280;795;49.296;11.348;2023-01-25T03:28:55;97931.81;;;-0.32;100.00
30339;BME280;795;49.296;11.348;2023-01-25T03:31:22;97914.03;;;-0.27;100.00
30339;BME280;795;49.296;11.348;2023-01-25T03:33:50;97575.19;;;-2.36;100.00
30339;BME280;795;49.296;11.348;2023-01-25T03:36:17;97763.94;;;-1.34;100.00
30339;BME280;795;49.296;11.348;2023-01-25T03:38:44;97851.69;;;-0.90;100.00
30339;BME280;795;49.296;11.348;2023-01-25T03:41:11;97840.03;;;-1.06;100.00
30339;BME280;795;49.296;11.348;2023-01-25T03:43:39;97926.41;;;-0.49;100.00
30339;BME280;795;49.296;11.348;2023-01-25T03:46:06;97604.81;;;-2.32;100.00
30339;BME280;795;49.296;11.348;2023-01-25T03:48:33;97806.13;;;-1.14;100.00
30339;BME280;795;49.296;11.348;2023-01-25T03:51:00;97863.72;;;-0.85;100.00
30339;BME280;795;49.296;11.348;2023-01-25T03:53:30;97788.66;;;-1.38;100.00
30339;BME280;795;49.296;11.348;2023-01-25T03:56:03;97911.81;;;-0.58;100.00
30339;BME280;795;49.296;11.348;2023-01-25T03:58:31;97738.94;;;-1.66;100.00
30339;BME280;795;49.296;11.348;2023-01-25T04:01:00;97898.91;;;-0.64;100.00
30339;BME280;795;49.296;11.348;2023-01-25T04:03:29;97843.31;;;-1.00;100.00
30339;BME280;795;49.296;11.348;2023-01-25T04:05:58;97811.16;;;-1.29;100.00
30339;BME280;795;49.296;11.348;2023-01-25T04:08:26;97898.97;;;-0.65;100.00
30339;BME280;795;49.296;11.348;2023-01-25T04:11:06;97893.44;;;-0.59;100.00
30339;BME280;795;49.296;11.348;2023-01-25T04:13:36;97875.09;;;-0.62;100.00
30339;BME280;795;49.296;11.348;2023-01-25T04:16:07;97872.59;;;-0.65;100.00
30339;BME280;795;49.296;11.348;2023-01-25T04:18:34;97830.63;;;-0.92;100.00
30339;BME280;795;49.296;11.348;2023-01-25T04:21:02;97661.50;;;-1.82;100.00
30339;BME280;795;49.296;11.348;2023-01-25T04:23:29;97823.47;;;-0.88;100.00
30339;BME280;795;49.296;11.348;2023-01-25T04:26:02;97886.84;;;-0.49;100.00
30339;BME280;795;49.296;11.348;2023-01-25T04:28:34;97883.25;;;-0.48;100.00
30339;BME280;795;49.296;11.348;2023-01-25T04:31:02;97711.78;;;-1.46;100.00
30339;BME280;795;49.296;11.348;2023-01-25T04:33:33;97876.00;;;-0.43;100.00
30339;BME280;795;49.296;11.348;2023-01-25T04:36:00;97778.53;;;-0.85;100.00
30339;BME280;795;49.296;11.348;2023-01-25T04:38:27;97822.22;;;-0.80;100.00
30339;BME280;795;49.296;11.348;2023-01-25T04:40:54;97380.16;;;-3.29;100.00
30339;BME280;795;49.296;11.348;2023-01-25T04:43:21;97656.59;;;-1.49;100.00
30339;BME280;795;49.296;11.348;2023-01-25T04:45:48;97726.88;;;-1.09;100.00
30339;BME280;795;49.296;11.348;2023-01-25T04:48:15;97701.59;;;-1.33;100.00
30339;BME280;795;49.296;11.348;2023-01-25T04:50:44;97841.53;;;-0.59;100.00
30339;BME280;795;49.296;11.348;2023-01-25T04:53:12;97842.31;;;-0.57;100.00
30339;BME280;795;49.296;11.348;2023-01-25T04:55:39;97677.19;;;-1.59;100.00
30339;BME280;795;49.296;11.348;2023-01-25T04:58:09;97571.41;;;-2.09;100.00
30339;BME280;795;49.296;11.348;2023-01-25T05:00:36;97789.53;;;-0.96;100.00
30339;BME280;795;49.296;11.348;2023-01-25T05:03:03;97515.56;;;-2.35;100.00
30339;BME280;795;49.296;11.348;2023-01-25T05:05:30;97504.66;;;-2.26;100.00
30339;BME280;795;49.296;11.348;2023-01-25T05:07:57;97839.16;;;-0.45;100.00
30339;BME280;795;49.296;11.348;2023-01-25T05:10:24;97545.19;;;-2.32;100.00
30339;BME280;795;49.296;11.348;2023-01-25T05:12:51;97833.84;;;-0.63;100.00
30339;BME280;795;49.296;11.348;2023-01-25T05:15:18;97472.44;;;-2.73;100.00
30339;BME280;795;49.296;11.348;2023-01-25T05:17:45;97701.63;;;-1.35;100.00
30339;BME280;795;49.296;11.348;2023-01-25T05:20:12;97485.84;;;-2.59;100.00
30339;BME280;795;49.296;11.348;2023-01-25T05:22:39;97771.75;;;-0.91;100.00
30339;BME280;795;49.296;11.348;2023-01-25T05:25:06;97721.53;;;-1.08;100.00
30339;BME280;795;49.296;11.348;2023-01-25T05:27:53;97663.44;;;-1.45;100.00
30339;BME280;795;49.296;11.348;2023-01-25T05:30:20;97812.19;;;-0.51;100.00
30339;BME280;795;49.296;11.348;2023-01-25T05:32:49;97814.06;;;-0.53;100.00
30339;BME280;795;49.296;11.348;2023-01-25T05:35:16;97813.22;;;-0.55;100.00
30339;BME280;795;49.296;11.348;2023-01-25T05:37:44;97461.41;;;-2.61;100.00
30339;BME280;795;49.296;11.348;2023-01-25T05:40:11;97672.84;;;-1.40;100.00
30339;BME280;795;49.296;11.348;2023-01-25T05:42:39;97746.56;;;-1.18;100.00
30339;BME280;795;49.296;11.348;2023-01-25T05:45:07;97818.47;;;-0.54;100.00
30339;BME280;795;49.296;11.348;2023-01-25T05:47:35;97711.84;;;-1.07;100.00
30339;BME280;795;49.296;11.348;2023-01-25T05:50:02;97829.59;;;-0.47;100.00
30339;BME280;795;49.296;11.348;2023-01-25T05:52:30;97827.03;;;-0.49;100.00
30339;BME280;795;49.296;11.348;2023-01-25T05:54:56;97525.41;;;-2.40;100.00
30339;BME280;795;49.296;11.348;2023-01-25T05:57:23;97714.03;;;-1.17;100.00
30339;BME280;795;49.296;11.348;2023-01-25T05:59:50;97700.91;;;-1.39;100.00
30339;BME280;795;49.296;11.348;2023-01-25T06:02:17;97728.44;;;-1.05;100.00
30339;BME280;795;49.296;11.348;2023-01-25T06:04:44;97541.41;;;-2.25;100.00
30339;BME280;795;49.296;11.348;2023-01-25T06:07:11;97490.50;;;-2.44;100.00
30339;BME280;795;49.296;11.348;2023-01-25T06:09:38;97815.38;;;-0.63;100.00
30339;BME280;795;49.296;11.348;2023-01-25T06:12:05;97722.72;;;-1.15;100.00
30339;BME280;795;49.296;11.348;2023-01-25T06:14:32;97630.31;;;-1.71;100.00
30339;BME280;795;49.296;11.348;2023-01-25T06:16:59;97746.69;;;-1.01;100.00
30339;BME280;795;49.296;11.348;2023-01-25T06:19:26;97763.38;;;-0.80;100.00
30339;BME280;795;49.296;11.348;2023-01-25T06:21:53;97763.81;;;-0.71;100.00
30339;BME280;795;49.296;11.348;2023-01-25T06:24:20;97720.63;;;-1.07;100.00
30339;BME280;795;49.296;11.348;2023-01-25T06:26:47;97649.22;;;-1.41;100.00
30339;BME280;795;49.296;11.348;2023-01-25T06:29:14;97530.13;;;-2.07;100.00
30339;BME280;795;49.296;11.348;2023-01-25T06:31:41;97789.50;;;-0.55;100.00
30339;BME280;795;49.296;11.348;2023-01-25T06:34:08;97745.03;;;-0.83;100.00
30339;BME280;795;49.296;11.348;2023-01-25T06:36:35;97751.22;;;-0.84;100.00
30339;BME280;795;49.296;11.348;2023-01-25T06:39:03;97715.31;;;-0.87;100.00
30339;BME280;795;49.296;11.348;2023-01-25T06:41:30;97811.50;;;-0.36;100.00
30339;BME280;795;49.296;11.348;2023-01-25T06:43:57;97699.66;;;-1.10;100.00
30339;BME280;795;49.296;11.348;2023-01-25T06:46:24;97740.22;;;-0.94;100.00
30339;BME280;795;49.296;11.348;2023-01-25T06:48:51;97666.59;;;-1.37;100.00
30339;BME280;795;49.296;11.348;2023-01-25T06:51:18;97720.75;;;-1.10;100.00
30339;BME280;795;49.296;11.348;2023-01-25T06:53:46;97657.50;;;-1.50;100.00
30339;BME280;795;49.296;11.348;2023-01-25T06:56:19;97718.56;;;-1.20;100.00
30339;BME280;795;49.296;11.348;2023-01-25T06:58:48;97816.94;;;-0.59;100.00
30339;BME280;795;49.296;11.348;2023-01-25T07:01:23;97733.63;;;-1.04;100.00
30339;BME280;795;49.296;11.348;2023-01-25T07:03:57;97684.34;;;-1.41;100.00
30339;BME280;795;49.296;11.348;2023-01-25T07:06:31;97801.19;;;-0.61;100.00
30339;BME280;795;49.296;11.348;2023-01-25T07:09:10;97757.81;;;-0.74;100.00
30339;BME280;795;49.296;11.348;2023-01-25T07:11:37;97729.69;;;-0.94;100.00
30339;BME280;795;49.296;11.348;2023-01-25T07:14:05;97686.38;;;-1.07;100.00
30339;BME280;795;49.296;11.348;2023-01-25T07:16:32;97692.47;;;-1.06;100.00
30339;BME280;795;49.296;11.348;2023-01-25T07:19:06;97791.66;;;-0.45;100.00
30339;BME280;795;49.296;11.348;2023-01-25T07:21:33;97685.63;;;-1.10;100.00
30339;BME280;795;49.296;11.348;2023-01-25T07:24:03;97788.13;;;-0.44;100.00
30339;BME280;795;49.296;11.348;2023-01-25T07:26:31;97783.22;;;-0.53;100.00
30339;BME280;795;49.296;11.348;2023-01-25T07:28:59;97759.78;;;-0.79;100.00
30339;BME280;795;49.296;11.348;2023-01-25T07:31:26;97803.41;;;-0.52;100.00
30339;BME280;795;49.296;11.348;2023-01-25T07:33:57;97788.03;;;-0.42;100.00
30339;BME280;795;49.296;11.348;2023-01-25T07:36:24;97630.97;;;-1.25;100.00
30339;BME280;795;49.296;11.348;2023-01-25T07:38:57;97686.41;;;-0.88;100.00
30339;BME280;795;49.296;11.348;2023-01-25T07:41:24;97732.44;;;-0.77;100.00
30339;BME280;795;49.296;11.348;2023-01-25T07:43:52;97686.06;;;-1.01;100.00
30339;BME280;795;49.296;11.348;2023-01-25T07:46:20;97727.16;;;-0.77;100.00
30339;BME280;795;49.296;11.348;2023-01-25T07:48:50;97780.03;;;-0.41;100.00
30339;BME280;795;49.296;11.348;2023-01-25T07:51:21;97776.50;;;-0.40;100.00
30339;BME280;795;49.296;11.348;2023-01-25T07:53:56;97753.38;;;-0.53;100.00
30339;BME280;795;49.296;11.348;2023-01-25T07:56:32;97777.97;;;-0.53;100.00
30339;BME280;795;49.296;11.348;2023-01-25T07:59:01;97780.53;;;-0.51;100.00
30339;BME280;795;49.296;11.348;2023-01-25T08:01:30;97780.91;;;-0.40;100.00
30339;BME280;795;49.296;11.348;2023-01-25T08:04:01;97782.09;;;-0.27;100.00
30339;BME280;795;49.296;11.348;2023-01-25T08:06:34;97776.41;;;-0.38;100.00
30339;BME280;795;49.296;11.348;2023-01-25T08:09:17;97777.50;;;-0.42;100.00
30339;BME280;795;49.296;11.348;2023-01-25T08:11:45;97653.63;;;-1.21;100.00
30339;BME280;795;49.296;11.348;2023-01-25T08:14:13;97655.41;;;-1.22;100.00
30339;BME280;795;49.296;11.348;2023-01-25T08:16:40;97778.81;;;-0.52;100.00
30339;BME280;795;49.296;11.348;2023-01-25T08:19:09;97784.22;;;-0.55;100.00
30339;BME280;795;49.296;11.348;2023-01-25T08:21:37;97777.59;;;-0.64;100.00
30339;BME280;795;49.296;11.348;2023-01-25T08:24:06;97781.41;;;-0.51;100.00
30339;BME280;795;49.296;11.348;2023-01-25T08:26:35;97711.97;;;-0.90;100.00
30339;BME280;795;49.296;11.348;2023-01-25T08:29:05;97779.66;;;-0.32;100.00
30339;BME280;795;49.296;11.348;2023-01-25T08:31:34;97771.78;;;-0.33;100.00
30339;BME280;795;49.296;11.348;2023-01-25T08:34:02;97637.34;;;-1.11;100.00
30339;BME280;795;49.296;11.348;2023-01-25T08:36:30;97667.09;;;-1.09;100.00
30339;BME280;795;49.296;11.348;2023-01-25T08:39:06;97724.75;;;-0.62;100.00
30339;BME280;795;49.296;11.348;2023-01-25T08:41:35;97681.13;;;-0.88;100.00
30339;BME280;795;49.296;11.348;2023-01-25T08:44:02;97771.91;;;-0.36;100.00
30339;BME280;795;49.296;11.348;2023-01-25T08:46:32;97774.72;;;-0.39;100.00
30339;BME280;795;49.296;11.348;2023-01-25T08:49:02;97767.34;;;-0.51;100.00
30339;BME280;795;49.296;11.348;2023-01-25T08:51:31;97746.03;;;-0.65;100.00
30339;BME280;795;49.296;11.348;2023-01-25T08:54:06;97673.63;;;-0.97;100.00
30339;BME280;795;49.296;11.348;2023-01-25T08:56:38;97650.13;;;-1.02;100.00
30339;BME280;795;49.296;11.348;2023-01-25T08:59:06;97761.66;;;-0.24;100.00
30339;BME280;795;49.296;11.348;2023-01-25T09:03:53;97672.44;;;-0.72;100.00
30339;BME280;795;49.296;11.348;2023-01-25T09:06:20;97654.13;;;-0.75;100.00
30339;BME280;795;49.296;11.348;2023-01-25T09:08:47;97689.13;;;-0.52;100.00
30339;BME280;795;49.296;11.348;2023-01-25T09:11:21;97754.81;;;-0.09;100.00
30339;BME280;795;49.296;11.348;2023-01-25T09:13:49;97683.72;;;-0.49;100.00
30339;BME280;795;49.296;11.348;2023-01-25T09:16:23;97684.84;;;-0.36;100.00
30339;BME280;795;49.296;11.348;2023-01-25T09:19:03;97685.94;;;-0.40;100.00
30339;BME280;795;49.296;11.348;2023-01-25T09:21:32;97691.41;;;-0.26;100.00
30339;BME280;795;49.296;11.348;2023-01-25T09:23:59;97612.81;;;-0.74;100.00
30339;BME280;795;49.296;11.348;2023-01-25T09:26:39;97703.97;;;-0.13;100.00
30339;BME280;795;49.296;11.348;2023-01-25T09:29:10;97618.44;;;-0.63;100.00
30339;BME280;795;49.296;11.348;2023-01-25T09:31:39;97644.88;;;-0.46;100.00
30339;BME280;795;49.296;11.348;2023-01-25T09:34:07;97670.63;;;-0.32;100.00
30339;BME280;795;49.296;11.348;2023-01-25T09:36:35;97656.13;;;-0.24;100.00
30339;BME280;795;49.296;11.348;2023-01-25T09:39:03;97632.03;;;-0.35;100.00
30339;BME280;795;49.296;11.348;2023-01-25T09:45:34;97655.75;;;-0.16;100.00
30339;BME280;795;49.296;11.348;2023-01-25T09:48:43;97637.88;;;-0.28;100.00
30339;BME280;795;49.296;11.348;2023-01-25T09:52:02;97729.72;;;0.37;100.00
30339;BME280;795;49.296;11.348;2023-01-25T09:54:39;97719.88;;;0.40;100.00
30339;BME280;795;49.296;11.348;2023-01-25T09:57:29;97720.19;;;0.51;100.00
30339;BME280;795;49.296;11.348;2023-01-25T10:00:14;97676.34;;;0.30;100.00
30339;BME280;795;49.296;11.348;2023-01-25T10:05:41;97650.88;;;-0.07;100.00
30339;BME280;795;49.296;11.348;2023-01-25T10:08:40;97678.41;;;0.07;100.00
30339;BME280;795;49.296;11.348;2023-01-25T10:11:31;97641.91;;;-0.21;100.00
30339;BME280;795;49.296;11.348;2023-01-25T10:13:59;97551.59;;;-0.81;100.00
30339;BME280;795;49.296;11.348;2023-01-25T10:20:02;97672.78;;;-0.05;100.00
30339;BME280;795;49.296;11.348;2023-01-25T10:25:59;97626.44;;;-0.10;100.00
30339;BME280;795;49.296;11.348;2023-01-25T10:28:55;97691.31;;;0.13;100.00
30339;BME280;795;49.296;11.348;2023-01-25T10:31:39;97657.41;;;-0.14;100.00
30339;BME280;795;49.296;11.348;2023-01-25T10:34:36;97689.25;;;0.19;100.00
30339;BME280;795;49.296;11.348;2023-01-25T10:37:30;97684.69;;;0.40;100.00
30339;BME280;795;49.296;11.348;2023-01-25T10:40:29;97649.53;;;0.21;100.00
30339;BME280;795;49.296;11.348;2023-01-25T10:43:20;97666.72;;;0.29;100.00
30339;BME280;795;49.296;11.348;2023-01-25T10:45:49;97679.41;;;0.40;100.00
30339;BME280;795;49.296;11.348;2023-01-25T10:48:37;97559.97;;;-0.18;100.00
30339;BME280;795;49.296;11.348;2023-01-25T10:51:05;97449.56;;;-0.79;100.00
30339;BME280;795;49.296;11.348;2023-01-25T10:53:37;97550.19;;;-0.16;100.00
30339;BME280;795;49.296;11.348;2023-01-25T10:56:24;97559.13;;;-0.02;100.00
30339;BME280;795;49.296;11.348;2023-01-25T10:59:26;97664.81;;;0.67;100.00
30339;BME280;795;49.296;11.348;2023-01-25T11:01:54;97326.88;;;-1.20;100.00
30339;BME280;795;49.296;11.348;2023-01-25T11:04:35;97645.72;;;0.78;100.00
30339;BME280;795;49.296;11.348;2023-01-25T11:07:04;97644.97;;;0.76;100.00
30339;BME280;795;49.296;11.348;2023-01-25T11:09:38;97634.47;;;0.74;100.00
30339;BME280;795;49.296;11.348;2023-01-25T11:12:19;97577.78;;;0.47;100.00
30339;BME280;795;49.296;11.348;2023-01-25T11:14:49;97238.75;;;-1.66;100.00
30339;BME280;795;49.296;11.348;2023-01-25T11:17:30;97618.16;;;0.49;100.00
30339;BME280;795;49.296;11.348;2023-01-25T11:20:18;97612.50;;;0.56;100.00
30339;BME280;795;49.296;11.348;2023-01-25T11:22:53;97600.66;;;0.63;100.00
30339;BME280;795;49.296;11.348;2023-01-25T11:25:33;97615.22;;;0.72;100.00
30339;BME280;795;49.296;11.348;2023-01-25T11:28:22;97347.22;;;-0.71;100.00
30339;BME280;795;49.296;11.348;2023-01-25T11:30:52;97500.13;;;0.17;100.00
30339;BME280;795;49.296;11.348;2023-01-25T11:33:21;97554.97;;;0.61;100.00
30339;BME280;795;49.296;11.348;2023-01-25T11:36:18;97594.44;;;0.82;100.00
30339;BME280;795;49.296;11.348;2023-01-25T11:45:57;97567.00;;;1.00;100.00
30339;BME280;795;49.296;11.348;2023-01-25T11:49:32;97568.72;;;1.01;100.00
30339;BME280;795;49.296;11.348;2023-01-25T11:55:30;97535.47;;;0.97;100.00
30339;BME280;795;49.296;11.348;2023-01-25T12:04:52;97542.22;;;1.18;100.00
30339;BME280;795;49.296;11.348;2023-01-25T12:08:17;97535.97;;;1.03;100.00
30339;BME280;795;49.296;11.348;2023-01-25T12:11:27;97410.50;;;0.62;100.00
30339;BME280;795;49.296;11.348;2023-01-25T12:26:18;97471.75;;;0.86;100.00
30339;BME280;795;49.296;11.348;2023-01-25T12:29:28;97499.22;;;1.14;100.00
30339;BME280;795;49.296;11.348;2023-01-25T12:34:39;97418.53;;;0.76;100.00
30339;BME280;795;49.296;11.348;2023-01-25T12:37:23;97476.03;;;1.04;100.00
30339;BME280;795;49.296;11.348;2023-01-25T12:40:03;97472.69;;;1.00;100.00
30339;BME280;795;49.296;11.348;2023-01-25T12:42:50;97427.16;;;0.80;100.00
30339;BME280;795;49.296;11.348;2023-01-25T12:45:27;97376.69;;;0.53;100.00
30339;BME280;795;49.296;11.348;2023-01-25T12:48:15;97406.78;;;0.82;100.00
30339;BME280;795;49.296;11.348;2023-01-25T12:50:57;97443.00;;;0.95;100.00
30339;BME280;795;49.296;11.348;2023-01-25T12:53:40;97331.13;;;0.01;100.00
30339;BME280;795;49.296;11.348;2023-01-25T12:59:33;97434.72;;;0.86;100.00
30339;BME280;795;49.296;11.348;2023-01-25T13:02:42;97424.00;;;0.89;100.00
30339;BME280;795;49.296;11.348;2023-01-25T13:05:40;97418.81;;;0.87;100.00
30339;BME280;795;49.296;11.348;2023-01-25T13:08:41;97296.75;;;0.18;100.00
30339;BME280;795;49.296;11.348;2023-01-25T13:11:36;97362.69;;;0.82;100.00
30339;BME280;795;49.296;11.348;2023-01-25T13:17:19;97357.06;;;0.41;100.00
30339;BME280;795;49.296;11.348;2023-01-25T13:19:48;97399.09;;;0.77;100.00
30339;BME280;795;49.296;11.348;2023-01-25T13:25:20;97393.22;;;0.72;100.00
30339;BME280;795;49.296;11.348;2023-01-25T13:27:48;97258.53;;;-0.39;100.00
30339;BME280;795;49.296;11.348;2023-01-25T13:30:33;97249.75;;;-0.39;100.00
30339;BME280;795;49.296;11.348;2023-01-25T13:33:05;97356.63;;;-0.15;100.00
30339;BME280;795;49.296;11.348;2023-01-25T13:35:40;97340.81;;;-0.15;100.00
30339;BME280;795;49.296;11.348;2023-01-25T13:40:43;97301.28;;;-0.17;100.00
30339;BME280;795;49.296;11.348;2023-01-25T13:43:19;97244.97;;;-0.48;100.00
30339;BME280;795;49.296;11.348;2023-01-25T13:45:51;97338.53;;;0.10;100.00
30339;BME280;795;49.296;11.348;2023-01-25T13:48:24;97275.13;;;-0.21;100.00
30339;BME280;795;49.296;11.348;2023-01-25T13:51:05;97386.81;;;0.45;100.00
30339;BME280;795;49.296;11.348;2023-01-25T13:53:35;97076.03;;;-1.42;100.00
30339;BME280;795;49.296;11.348;2023-01-25T13:56:34;97379.31;;;0.68;100.00
30339;BME280;795;49.296;11.348;2023-01-25T13:59:01;97074.84;;;-1.19;100.00
30339;BME280;795;49.296;11.348;2023-01-25T14:01:33;97297.00;;;0.14;100.00
30339;BME280;795;49.296;11.348;2023-01-25T14:04:04;97365.91;;;0.56;100.00
30339;BME280;795;49.296;11.348;2023-01-25T14:06:38;97376.59;;;0.54;100.00
30339;BME280;795;49.296;11.348;2023-01-25T14:09:18;97252.72;;;-0.45;100.00
30339;BME280;795;49.296;11.348;2023-01-25T14:11:59;97307.91;;;-0.25;100.00
30339;BME280;795;49.296;11.348;2023-01-25T14:14:33;97374.22;;;0.17;100.00
30339;BME280;795;49.296;11.348;2023-01-25T14:17:22;97327.72;;;-0.01;100.00
30339;BME280;795;49.296;11.348;2023-01-25T14:19:53;97321.06;;;-0.08;100.00
30339;BME280;795;49.296;11.348;2023-01-25T14:22:28;97254.91;;;-0.21;100.00
30339;BME280;795;49.296;11.348;2023-01-25T14:25:17;97348.47;;;0.38;100.00
30339;BME280;795;49.296;11.348;2023-01-25T14:27:59;97352.44;;;0.29;100.00
30339;BME280;795;49.296;11.348;2023-01-25T14:30:32;97355.81;;;0.00;100.00
30339;BME280;795;49.296;11.348;2023-01-25T14:33:16;97167.66;;;-1.14;100.00
30339;BME280;795;49.296;11.348;2023-01-25T14:35:49;97349.34;;;0.06;100.00